Terminal Aerodrome Forecast
Issued by NWS

Home | Current Version | Previous Version | Text Only | Print | Product List | Glossary On
Versions: 1 2 3 4 5 6 7 8 9 10 11 12 13
000
FTUS42 TJSJ 192300
TAFJMZ
TAF
TJMZ 192320Z 2000/2024 07005KT P6SM FEW030 BKN060
     FM200230 00000KT P6SM FEW070
     FM201530 07009KT P6SM VCSH FEW025 SCT040
     FM202130 08005KT P6SM FEW030 SCT060
      AMD NOT SKED TIL 201100=

USA.gov is the U.S. government's official web portal to all federal, state and local government web resources and services.